Mount Olive, Louisiana
Current Conditions -  °F | °C
As of 9:35 AM on Friday 19 Dec 2014 (Local Time) from KRSN Reporting Station
Drizzle Drizzle  
Wind Chill: 44°   Ceiling: 700
Heat Index: 46°   Visibility: 7mi
Dew Point: 46°   Wind: 5mph
Humidity: 100%   Direction: 60°ENE
Pressure: 30.23"   Gusts: NA
Location:  32.3651°N, 92.7332°W
Report Text: KRSN 191535Z AUTO 06004KT 7SM DZ BKN007 OVC024 08/08 A3023 RMK AO2 T00800080
Loading
Personal Weather Stations






























Interactive Weather Map New forecast layout! Learn more

10-Day Weather Forecast

Advertisements
Track Severe Weather on mobile